createdAt,value
2023-05-05T00:00:22.066Z,13.98
2023-05-05T00:01:24.266Z,14.17
2023-05-05T00:02:26.239Z,14.11
2023-05-05T00:03:29.238Z,14.13
2023-05-05T00:04:31.341Z,14.18
2023-05-05T00:05:33.160Z,14.12
2023-05-05T00:06:35.341Z,14.17
2023-05-05T00:07:37.198Z,14.16
2023-05-05T00:08:39.035Z,14.15
2023-05-05T00:09:41.576Z,14.19
2023-05-05T00:10:50.815Z,14.19
2023-05-05T00:11:52.963Z,14.09
2023-05-05T00:12:54.811Z,14.09
2023-05-05T00:13:56.718Z,14.02
2023-05-05T00:14:58.588Z,13.91
2023-05-05T00:16:00.668Z,13.91
2023-05-05T00:17:04.080Z,13.95
2023-05-05T00:18:06.130Z,13.93
2023-05-05T00:19:08.043Z,13.85
2023-05-05T00:20:10.364Z,13.82
2023-05-05T00:21:12.328Z,13.96
2023-05-05T00:22:14.588Z,14.02
2023-05-05T00:23:16.993Z,14.04
2023-05-05T00:24:18.839Z,14.07
2023-05-05T00:25:20.734Z,14.16
2023-05-05T00:26:22.910Z,14.18
2023-05-05T00:27:25.563Z,14.21
2023-05-05T00:28:27.533Z,14.06
2023-05-05T00:29:29.949Z,14.05
2023-05-05T00:30:31.833Z,14.02
2023-05-05T00:31:34.157Z,14.14
2023-05-05T00:32:36.552Z,14.14
2023-05-05T00:33:38.419Z,14.10
2023-05-05T00:34:41.721Z,14.12
2023-05-05T00:35:43.638Z,13.93
2023-05-05T00:36:45.506Z,13.88
2023-05-05T00:37:48.049Z,14.04
2023-05-05T00:38:49.946Z,14.07
2023-05-05T00:39:51.933Z,14.03
2023-05-05T00:40:53.760Z,14.00
2023-05-05T00:41:55.583Z,13.96
2023-05-05T00:42:59.542Z,13.95
2023-05-05T00:44:01.527Z,14.06
2023-05-05T00:45:04.167Z,13.99
2023-05-05T00:46:26.443Z,13.96
2023-05-05T00:47:28.225Z,14.10
2023-05-05T00:48:30.567Z,14.07
2023-05-05T00:49:33.532Z,13.94
2023-05-05T00:50:35.351Z,13.87
2023-05-05T00:51:37.082Z,13.93
2023-05-05T00:52:39.129Z,13.86
2023-05-05T00:53:43.073Z,13.94
2023-05-05T00:54:44.907Z,14.06
2023-05-05T00:55:46.898Z,14.06
2023-05-05T00:56:49.943Z,13.98
2023-05-05T00:57:51.677Z,14.06
2023-05-05T00:58:53.744Z,14.02
2023-05-05T00:59:55.965Z,13.99
2023-05-05T01:00:57.669Z,14.07
2023-05-05T01:01:59.643Z,13.98
2023-05-05T01:03:01.751Z,14.02
2023-05-05T01:04:04.043Z,14.01
2023-05-05T01:05:06.695Z,14.04
2023-05-05T01:06:16.269Z,13.96
2023-05-05T01:07:27.460Z,13.94
2023-05-05T01:08:38.308Z,13.96
2023-05-05T01:10:15.256Z,14.06
2023-05-05T01:11:19.470Z,14.05
2023-05-05T01:12:39.819Z,14.12
2023-05-05T01:13:44.492Z,13.99
2023-05-05T01:15:07.567Z,13.91
2023-05-05T01:16:15.076Z,13.90
2023-05-05T01:17:22.163Z,13.88
2023-05-05T01:18:23.794Z,13.83
2023-05-05T01:19:44.106Z,13.83
2023-05-05T01:20:52.964Z,13.77
2023-05-05T01:21:57.235Z,13.74
2023-05-05T01:23:06.627Z,13.71
2023-05-05T01:24:20.378Z,13.88
2023-05-05T01:25:41.618Z,13.61
2023-05-05T01:26:55.672Z,13.73
2023-05-05T01:28:09.347Z,13.51
2023-05-05T01:29:29.792Z,13.54
2023-05-05T01:30:50.047Z,13.47
2023-05-05T01:31:52.134Z,13.48
2023-05-05T01:32:57.982Z,13.31
2023-05-05T01:34:01.703Z,13.33
2023-05-05T01:35:09.890Z,13.30
2023-05-05T01:36:13.484Z,13.34
2023-05-05T01:37:19.502Z,13.06
2023-05-05T01:38:41.014Z,13.14
2023-05-05T01:39:43.819Z,13.10
2023-05-05T01:40:48.184Z,13.03
2023-05-05T01:41:51.198Z,13.06
2023-05-05T01:42:54.335Z,13.20
2023-05-05T01:43:57.345Z,13.08
2023-05-05T01:45:00.056Z,13.09
2023-05-05T01:46:02.499Z,13.04
2023-05-05T01:47:05.113Z,13.18
2023-05-05T01:48:08.200Z,13.28
2023-05-05T01:49:11.064Z,13.16
2023-05-05T01:50:14.459Z,13.11
2023-05-05T01:51:17.963Z,13.03
2023-05-05T01:52:19.920Z,12.80
2023-05-05T01:53:24.217Z,12.89
2023-05-05T01:54:27.179Z,13.00
2023-05-05T01:55:30.436Z,12.80
2023-05-05T01:56:32.990Z,12.95
2023-05-05T01:57:36.037Z,12.86
2023-05-05T01:58:38.792Z,12.74
2023-05-05T01:59:40.493Z,12.69
2023-05-05T02:00:44.054Z,12.81
2023-05-05T02:01:47.289Z,12.67
2023-05-05T02:02:50.192Z,12.37
2023-05-05T02:03:52.953Z,12.53
2023-05-05T02:04:54.777Z,12.56
2023-05-05T02:05:58.264Z,12.62
2023-05-05T02:07:01.281Z,12.54
2023-05-05T02:08:04.406Z,12.51
2023-05-05T02:09:08.412Z,12.62
2023-05-05T02:10:12.303Z,12.76
2023-05-05T02:11:14.284Z,12.78
2023-05-05T02:12:17.981Z,12.70
2023-05-05T02:13:20.661Z,12.71
2023-05-05T02:14:23.486Z,12.54
2023-05-05T02:15:27.752Z,12.46
2023-05-05T02:16:31.201Z,12.51
2023-05-05T02:17:33.016Z,12.46
2023-05-05T02:18:36.087Z,12.42
2023-05-05T02:19:43.569Z,12.36
2023-05-05T02:20:46.972Z,12.31
2023-05-05T02:21:48.776Z,12.46
2023-05-05T02:22:50.521Z,12.48
2023-05-05T02:23:52.361Z,12.51
2023-05-05T02:24:54.368Z,12.54
2023-05-05T02:25:59.829Z,12.43
2023-05-05T02:27:03.725Z,12.21
2023-05-05T02:28:08.017Z,12.17
2023-05-05T02:29:30.050Z,12.14
2023-05-05T02:30:34.610Z,12.01
2023-05-05T02:31:42.407Z,11.74
2023-05-05T02:32:44.539Z,11.79
2023-05-05T02:33:47.392Z,11.83
2023-05-05T02:34:50.709Z,11.86
2023-05-05T02:35:53.666Z,11.91
2023-05-05T02:36:58.052Z,11.98
2023-05-05T02:38:05.716Z,12.10
2023-05-05T02:39:13.501Z,12.08
2023-05-05T02:40:19.888Z,12.26
2023-05-05T02:41:23.378Z,12.35
2023-05-05T02:42:31.714Z,12.13
2023-05-05T02:43:35.051Z,11.96
2023-05-05T02:44:38.640Z,11.81
2023-05-05T02:45:40.541Z,11.92
2023-05-05T02:46:42.987Z,11.97
2023-05-05T02:47:45.542Z,11.76
2023-05-05T02:48:47.750Z,11.61
2023-05-05T02:49:49.675Z,11.81
2023-05-05T02:50:51.411Z,11.70
2023-05-05T02:51:53.979Z,11.76
2023-05-05T02:52:56.490Z,11.73
2023-05-05T02:53:59.127Z,11.75
2023-05-05T02:55:01.345Z,11.94
2023-05-05T02:56:17.987Z,11.83
2023-05-05T02:57:21.310Z,11.71
2023-05-05T02:58:29.424Z,11.80
2023-05-05T02:59:53.116Z,11.79
2023-05-05T03:01:01.236Z,11.49
2023-05-05T03:02:21.480Z,11.48
2023-05-05T03:03:29.728Z,11.63
2023-05-05T03:04:38.252Z,11.72
2023-05-05T03:05:47.537Z,11.62
2023-05-05T03:06:51.138Z,11.57
2023-05-05T03:08:04.258Z,11.56
2023-05-05T03:09:15.219Z,11.58
2023-05-05T03:10:20.193Z,11.42
2023-05-05T03:11:46.360Z,11.46
2023-05-05T03:12:56.329Z,11.31
2023-05-05T03:14:05.699Z,11.14
2023-05-05T03:15:09.334Z,11.32
2023-05-05T03:16:12.037Z,11.27
2023-05-05T03:17:14.709Z,11.15
2023-05-05T03:18:17.697Z,11.16
2023-05-05T03:19:20.340Z,11.11
2023-05-05T03:20:23.101Z,11.18
2023-05-05T03:21:25.450Z,11.21
2023-05-05T03:22:27.965Z,10.82
2023-05-05T03:23:32.013Z,10.86
2023-05-05T03:24:33.956Z,10.95
2023-05-05T03:25:47.105Z,10.83
2023-05-05T03:26:49.815Z,10.89
2023-05-05T03:27:53.919Z,11.14
2023-05-05T03:28:55.800Z,11.26
2023-05-05T03:29:58.269Z,11.11
2023-05-05T03:31:01.038Z,11.03
2023-05-05T03:32:03.135Z,11.00
2023-05-05T03:33:04.920Z,10.80
2023-05-05T03:34:07.343Z,10.82
2023-05-05T03:35:09.945Z,10.71
2023-05-05T03:36:11.942Z,10.72
2023-05-05T03:37:13.850Z,10.87
2023-05-05T03:38:16.092Z,10.50
2023-05-05T03:39:18.899Z,10.50
2023-05-05T03:40:23.542Z,10.71
2023-05-05T03:41:32.221Z,10.63
2023-05-05T03:42:34.471Z,10.70
2023-05-05T03:43:36.599Z,10.73
2023-05-05T03:44:38.552Z,10.77
2023-05-05T03:45:40.341Z,10.82
2023-05-05T03:46:42.383Z,10.84
2023-05-05T03:47:44.925Z,11.02
2023-05-05T03:48:46.682Z,11.16
2023-05-05T03:49:48.541Z,10.90
2023-05-05T03:50:50.256Z,10.81
2023-05-05T03:51:52.642Z,10.86
2023-05-05T03:52:54.423Z,10.90
2023-05-05T03:53:56.503Z,10.96
2023-05-05T03:55:00.044Z,10.80
2023-05-05T03:56:02.013Z,10.96
2023-05-05T03:57:04.217Z,11.13
2023-05-05T03:58:05.922Z,10.88
2023-05-05T03:59:08.753Z,10.74
2023-05-05T04:00:11.911Z,10.81
2023-05-05T04:01:15.946Z,10.82
2023-05-05T04:02:18.913Z,11.04
2023-05-05T04:03:21.374Z,11.20
2023-05-05T04:04:23.247Z,11.19
2023-05-05T04:05:25.479Z,11.19
2023-05-05T04:06:27.956Z,11.19
2023-05-05T04:07:29.947Z,11.09
2023-05-05T04:08:31.718Z,11.26
2023-05-05T04:09:33.483Z,11.20
2023-05-05T04:10:35.573Z,11.14
2023-05-05T04:11:37.460Z,11.12
2023-05-05T04:12:39.745Z,11.22
2023-05-05T04:13:41.793Z,11.42
2023-05-05T04:14:43.792Z,11.46
2023-05-05T04:15:46.439Z,11.34
2023-05-05T04:16:48.976Z,11.23
2023-05-05T04:17:51.412Z,11.23
2023-05-05T04:18:53.845Z,11.30
2023-05-05T04:19:55.723Z,11.36
2023-05-05T04:20:57.612Z,11.48
2023-05-05T04:21:59.811Z,11.58
2023-05-05T04:23:02.182Z,11.67
2023-05-05T04:24:04.239Z,11.64
2023-05-05T04:25:06.694Z,11.57
2023-05-05T04:26:08.446Z,11.73
2023-05-05T04:27:10.478Z,11.79
2023-05-05T04:28:12.534Z,11.99
2023-05-05T04:29:14.424Z,12.12
2023-05-05T04:30:16.125Z,12.10
2023-05-05T04:31:17.927Z,12.05
2023-05-05T04:32:19.852Z,12.03
2023-05-05T04:33:22.287Z,12.11
2023-05-05T04:34:24.250Z,12.16
2023-05-05T04:35:26.239Z,12.17
2023-05-05T04:36:28.362Z,12.23
2023-05-05T04:37:30.094Z,12.32
2023-05-05T04:38:32.280Z,12.31
2023-05-05T04:39:34.120Z,12.42
2023-05-05T04:40:40.547Z,12.51
2023-05-05T04:41:42.451Z,12.49
2023-05-05T04:42:44.255Z,12.40
2023-05-05T04:43:46.422Z,12.33
2023-05-05T04:44:49.025Z,12.30
2023-05-05T04:45:52.075Z,12.30
2023-05-05T04:46:54.589Z,12.53
2023-05-05T04:47:56.733Z,12.58
2023-05-05T04:48:59.003Z,12.56
2023-05-05T04:50:01.112Z,12.65
2023-05-05T04:51:06.506Z,12.62
2023-05-05T04:52:08.775Z,12.54
2023-05-05T04:53:11.225Z,12.67
2023-05-05T04:54:13.933Z,12.72
2023-05-05T04:55:15.768Z,12.64
2023-05-05T04:56:17.479Z,12.68
2023-05-05T04:57:19.182Z,12.82
2023-05-05T04:58:20.908Z,12.87
2023-05-05T04:59:22.909Z,12.87
2023-05-05T05:00:24.594Z,12.86
2023-05-05T05:01:26.319Z,12.93
2023-05-05T05:02:28.284Z,12.97
2023-05-05T05:03:32.348Z,13.12
2023-05-05T05:04:34.536Z,13.08
2023-05-05T05:05:36.249Z,13.03
2023-05-05T05:06:37.909Z,13.08
2023-05-05T05:07:39.770Z,13.15
2023-05-05T05:08:41.631Z,13.21
2023-05-05T05:09:43.667Z,13.35
2023-05-05T05:10:45.604Z,13.50
2023-05-05T05:11:47.333Z,13.71
2023-05-05T05:12:49.034Z,13.67
2023-05-05T05:13:50.854Z,13.66
2023-05-05T05:14:52.866Z,13.74
2023-05-05T05:15:55.351Z,13.77
2023-05-05T05:16:57.082Z,13.75
2023-05-05T05:17:59.007Z,13.81
2023-05-05T05:19:01.748Z,13.95
2023-05-05T05:20:05.061Z,13.94
2023-05-05T05:21:07.540Z,14.01
2023-05-05T05:22:09.374Z,14.06
2023-05-05T05:23:11.701Z,14.11
2023-05-05T05:24:14.279Z,14.13
2023-05-05T05:25:16.432Z,14.21
2023-05-05T05:26:18.521Z,14.31
2023-05-05T05:27:20.529Z,14.43
2023-05-05T05:28:22.623Z,14.48
2023-05-05T05:29:24.729Z,14.48
2023-05-05T05:30:26.806Z,14.56
2023-05-05T05:31:28.724Z,14.63
2023-05-05T05:32:30.782Z,14.77
2023-05-05T05:33:32.534Z,14.78
2023-05-05T05:34:34.266Z,14.80
2023-05-05T05:35:37.959Z,15.04
2023-05-05T05:36:39.794Z,15.13
2023-05-05T05:37:41.591Z,15.11
2023-05-05T05:38:43.403Z,15.13
2023-05-05T05:39:51.084Z,14.99
2023-05-05T05:40:54.512Z,15.00
2023-05-05T05:41:56.621Z,15.33
2023-05-05T05:42:58.372Z,15.40
2023-05-05T05:44:01.623Z,15.44
2023-05-05T05:45:04.025Z,15.63
2023-05-05T05:46:08.831Z,15.88
2023-05-05T05:47:11.085Z,16.28
2023-05-05T05:48:13.160Z,16.16
2023-05-05T05:49:16.291Z,16.02
2023-05-05T05:50:18.183Z,16.09
2023-05-05T05:51:20.387Z,16.17
2023-05-05T05:52:22.393Z,15.99
2023-05-05T05:53:24.375Z,15.98
2023-05-05T05:54:26.973Z,16.05
2023-05-05T05:55:28.798Z,16.18
2023-05-05T05:56:31.201Z,16.28
2023-05-05T05:57:32.931Z,16.41
2023-05-05T05:58:34.950Z,16.52
2023-05-05T05:59:37.030Z,16.59
2023-05-05T06:00:39.262Z,16.64
2023-05-05T06:01:41.745Z,16.76
2023-05-05T06:02:43.952Z,16.86
2023-05-05T06:03:46.439Z,16.81
2023-05-05T06:04:48.827Z,16.79
2023-05-05T06:05:50.706Z,16.95
2023-05-05T06:06:52.924Z,17.00
2023-05-05T06:07:54.650Z,16.95
2023-05-05T06:08:56.904Z,16.98
2023-05-05T06:10:01.384Z,17.21
2023-05-05T06:11:09.573Z,17.14
2023-05-05T06:12:11.746Z,17.11
2023-05-05T06:13:13.787Z,17.09
2023-05-05T06:14:18.091Z,17.14
2023-05-05T06:15:20.766Z,17.13
2023-05-05T06:16:22.661Z,17.12
2023-05-05T06:17:25.168Z,17.20
2023-05-05T06:18:27.030Z,17.32
2023-05-05T06:19:29.669Z,17.25
2023-05-05T06:20:31.939Z,17.39
2023-05-05T06:21:33.901Z,17.45
2023-05-05T06:22:35.916Z,17.55
2023-05-05T06:23:37.727Z,17.53
2023-05-05T06:24:39.711Z,17.36
2023-05-05T06:25:41.843Z,17.23
2023-05-05T06:26:43.574Z,17.09
2023-05-05T06:27:45.999Z,17.15
2023-05-05T06:28:47.703Z,17.07
2023-05-05T06:29:49.364Z,17.18
2023-05-05T06:30:51.824Z,17.22
2023-05-05T06:31:53.538Z,17.35
2023-05-05T06:32:55.834Z,17.42
2023-05-05T06:33:57.575Z,17.44
2023-05-05T06:34:59.229Z,17.50
2023-05-05T06:36:01.039Z,17.55
2023-05-05T06:37:02.735Z,17.52
2023-05-05T06:38:04.740Z,17.57
2023-05-05T06:39:06.373Z,17.82
2023-05-05T06:40:08.775Z,17.94
2023-05-05T06:41:10.699Z,17.88
2023-05-05T06:42:12.374Z,17.82
2023-05-05T06:43:14.381Z,18.05
2023-05-05T06:44:16.256Z,18.05
2023-05-05T06:45:18.276Z,17.95
2023-05-05T06:46:19.971Z,18.10
2023-05-05T06:47:21.875Z,18.09
2023-05-05T06:48:23.836Z,18.19
2023-05-05T06:49:25.523Z,18.25
2023-05-05T06:50:27.302Z,18.48
2023-05-05T06:51:29.022Z,18.59
2023-05-05T06:52:30.909Z,18.45
2023-05-05T06:53:33.093Z,18.23
2023-05-05T06:54:34.775Z,18.38
2023-05-05T06:55:36.951Z,18.57
2023-05-05T06:56:38.727Z,18.68
2023-05-05T06:57:40.446Z,18.63
2023-05-05T06:58:42.620Z,18.57
2023-05-05T06:59:44.374Z,18.33
2023-05-05T07:00:46.139Z,18.33
2023-05-05T07:01:47.872Z,18.07
2023-05-05T07:02:49.829Z,18.20
2023-05-05T07:03:52.605Z,18.44
2023-05-05T07:04:55.523Z,18.71
2023-05-05T07:05:57.717Z,18.92
2023-05-05T07:06:59.501Z,18.88
2023-05-05T07:08:01.460Z,18.69
2023-05-05T07:09:04.428Z,18.89
2023-05-05T07:10:06.889Z,18.77
2023-05-05T07:11:08.729Z,18.93
2023-05-05T07:12:10.543Z,19.01
2023-05-05T07:13:12.594Z,18.98
2023-05-05T07:14:14.800Z,18.76
2023-05-05T07:15:26.881Z,18.77
2023-05-05T07:16:30.892Z,18.86
2023-05-05T07:17:32.626Z,19.09
2023-05-05T07:18:34.907Z,19.24
2023-05-05T07:19:36.885Z,19.31
2023-05-05T07:20:38.600Z,19.06
2023-05-05T07:21:40.294Z,19.07
2023-05-05T07:22:42.272Z,19.28
2023-05-05T07:23:46.215Z,18.98
2023-05-05T07:24:49.676Z,19.20
2023-05-05T07:25:51.641Z,19.43
2023-05-05T07:26:53.361Z,19.51
2023-05-05T07:27:55.168Z,19.55
2023-05-05T07:28:58.671Z,19.39
2023-05-05T07:30:00.776Z,19.37
2023-05-05T07:31:02.481Z,19.51
2023-05-05T07:32:04.602Z,19.67
2023-05-05T07:33:06.818Z,19.70
2023-05-05T07:34:08.600Z,19.73
2023-05-05T07:35:10.874Z,19.65
2023-05-05T07:36:12.620Z,19.37
2023-05-05T07:37:14.386Z,19.83
2023-05-05T07:38:16.116Z,19.74
2023-05-05T07:39:19.507Z,19.53
2023-05-05T07:40:21.647Z,19.77
2023-05-05T07:41:23.512Z,19.89
2023-05-05T07:42:25.216Z,20.05
2023-05-05T07:43:27.201Z,20.12
2023-05-05T07:44:28.886Z,20.02
2023-05-05T07:45:31.516Z,20.08
2023-05-05T07:46:33.336Z,20.25
2023-05-05T07:47:35.467Z,20.41
2023-05-05T07:48:37.456Z,19.99
2023-05-05T07:49:39.136Z,20.36
2023-05-05T07:50:41.226Z,20.74
2023-05-05T07:51:42.998Z,20.87
2023-05-05T07:52:49.871Z,20.91
2023-05-05T07:53:55.755Z,20.81
2023-05-05T07:54:57.442Z,20.81
2023-05-05T07:55:59.543Z,21.01
2023-05-05T07:57:02.076Z,20.72
2023-05-05T07:58:03.867Z,20.61
2023-05-05T07:59:05.586Z,20.59
2023-05-05T08:00:07.866Z,20.80
2023-05-05T08:01:13.637Z,21.26
2023-05-05T08:02:15.857Z,21.47
2023-05-05T08:03:20.049Z,20.88
2023-05-05T08:04:22.008Z,20.81
2023-05-05T08:05:23.924Z,21.29
2023-05-05T08:06:27.701Z,21.33
2023-05-05T08:07:29.719Z,21.00
2023-05-05T08:08:31.536Z,21.04
2023-05-05T08:09:33.302Z,20.76
2023-05-05T08:10:35.090Z,20.81
2023-05-05T08:11:36.807Z,20.58
2023-05-05T08:12:39.176Z,21.13
2023-05-05T08:13:42.886Z,21.17
2023-05-05T08:14:44.536Z,21.16
2023-05-05T08:15:46.301Z,21.45
2023-05-05T08:16:48.068Z,21.57
2023-05-05T08:17:51.246Z,21.71
2023-05-05T08:18:53.120Z,21.74
2023-05-05T08:19:54.857Z,21.76
2023-05-05T08:20:56.571Z,21.61
2023-05-05T08:22:01.120Z,21.46
2023-05-05T08:23:03.515Z,21.70
2023-05-05T08:24:05.348Z,21.89
2023-05-05T08:25:07.554Z,21.73
2023-05-05T08:26:09.601Z,21.36
2023-05-05T08:27:11.411Z,21.60
2023-05-05T08:28:13.454Z,21.93
2023-05-05T08:29:15.367Z,22.03
2023-05-05T08:30:20.774Z,21.93
2023-05-05T08:31:22.534Z,22.00
2023-05-05T08:32:24.278Z,21.64
2023-05-05T08:33:26.287Z,21.64
2023-05-05T08:34:27.986Z,21.27
2023-05-05T08:35:29.629Z,21.37
2023-05-05T08:36:31.641Z,21.35
2023-05-05T08:37:33.375Z,21.62
2023-05-05T08:38:36.341Z,21.43
2023-05-05T08:39:38.023Z,21.54
2023-05-05T08:40:40.749Z,21.44
2023-05-05T08:41:42.638Z,21.42
2023-05-05T08:42:47.456Z,21.13
2023-05-05T08:43:50.581Z,21.54
2023-05-05T08:44:52.993Z,21.08
2023-05-05T08:45:56.220Z,20.98
2023-05-05T08:47:00.560Z,21.64
2023-05-05T08:48:03.398Z,22.03
2023-05-05T08:49:07.891Z,21.25
2023-05-05T08:50:11.101Z,21.56
2023-05-05T08:51:19.780Z,21.78
2023-05-05T08:52:23.420Z,22.04
2023-05-05T08:53:45.825Z,22.28
2023-05-05T08:54:54.764Z,22.40
2023-05-05T08:55:59.218Z,22.21
2023-05-05T08:57:01.956Z,21.66
2023-05-05T08:58:04.262Z,21.95
2023-05-05T08:59:06.149Z,22.52
2023-05-05T09:00:09.869Z,22.71
2023-05-05T09:01:13.059Z,23.02
2023-05-05T09:02:16.176Z,22.92
2023-05-05T09:03:18.675Z,22.21
2023-05-05T09:04:20.774Z,22.31
2023-05-05T09:05:22.845Z,22.50
2023-05-05T09:06:26.923Z,22.68
2023-05-05T09:07:28.768Z,22.93
2023-05-05T09:08:31.456Z,23.03
2023-05-05T09:09:33.194Z,23.30
2023-05-05T09:10:36.406Z,23.45
2023-05-05T09:11:39.241Z,23.47
2023-05-05T09:12:41.363Z,23.31
2023-05-05T09:13:43.569Z,23.41
2023-05-05T09:14:46.305Z,23.59
2023-05-05T09:15:48.355Z,23.68
2023-05-05T09:16:50.118Z,23.83
2023-05-05T09:17:51.996Z,23.17
2023-05-05T09:19:03.606Z,22.78
2023-05-05T09:20:07.389Z,23.26
2023-05-05T09:21:19.063Z,22.74
2023-05-05T09:22:32.383Z,23.31
2023-05-05T09:23:34.118Z,23.01
2023-05-05T09:24:35.810Z,23.38
2023-05-05T09:25:37.655Z,23.24
2023-05-05T09:26:42.174Z,23.28
2023-05-05T09:27:47.973Z,22.89
2023-05-05T09:28:53.275Z,23.19
2023-05-05T09:29:56.334Z,23.29
2023-05-05T09:31:12.059Z,23.33
2023-05-05T09:32:14.272Z,23.52
2023-05-05T09:33:28.517Z,23.57
2023-05-05T09:34:30.277Z,23.55
2023-05-05T09:35:50.560Z,23.57
2023-05-05T09:36:52.333Z,23.39
2023-05-05T09:37:54.399Z,23.58
2023-05-05T09:39:06.320Z,23.19
2023-05-05T09:40:09.309Z,23.35
2023-05-05T09:41:11.005Z,23.31
2023-05-05T09:42:19.391Z,23.41
2023-05-05T09:43:23.205Z,23.21
2023-05-05T09:44:35.168Z,23.22
2023-05-05T09:45:36.920Z,23.43
2023-05-05T09:46:39.181Z,22.51
2023-05-05T09:47:41.904Z,22.40
2023-05-05T09:48:43.980Z,22.83
2023-05-05T09:49:45.914Z,23.35
2023-05-05T09:50:47.631Z,23.76
2023-05-05T09:51:49.474Z,23.49
2023-05-05T09:53:02.174Z,23.29
2023-05-05T09:54:04.182Z,23.80
2023-05-05T09:55:06.451Z,24.02
2023-05-05T09:56:08.520Z,23.61
2023-05-05T09:57:25.557Z,23.97
2023-05-05T09:58:28.661Z,24.25
2023-05-05T09:59:30.707Z,23.76
2023-05-05T10:00:39.592Z,23.74
2023-05-05T10:01:43.722Z,23.45
2023-05-05T10:02:45.747Z,23.67
2023-05-05T10:03:52.321Z,23.97
2023-05-05T10:05:04.359Z,24.14
2023-05-05T10:06:07.874Z,24.30
2023-05-05T10:07:22.190Z,23.79
2023-05-05T10:08:24.898Z,23.70
2023-05-05T10:09:26.978Z,23.70
2023-05-05T10:10:29.117Z,23.35
2023-05-05T10:11:31.673Z,23.55
2023-05-05T10:12:37.135Z,24.08
2023-05-05T10:13:41.021Z,24.46
2023-05-05T10:14:43.313Z,24.55
2023-05-05T10:15:45.744Z,24.57
2023-05-05T10:16:54.906Z,24.40
2023-05-05T10:18:06.678Z,24.30
2023-05-05T10:19:12.457Z,24.33
2023-05-05T10:20:15.735Z,24.58
2023-05-05T10:21:19.921Z,24.86
2023-05-05T10:22:22.681Z,24.24
2023-05-05T10:23:27.957Z,24.27
2023-05-05T10:24:35.957Z,24.33
2023-05-05T10:25:42.165Z,24.70
2023-05-05T10:26:44.229Z,24.91
2023-05-05T10:27:46.941Z,24.94
2023-05-05T10:29:01.768Z,24.35
2023-05-05T10:30:04.562Z,24.01
2023-05-05T10:31:20.064Z,24.31
2023-05-05T10:32:51.999Z,24.31
2023-05-05T10:33:55.459Z,24.37
2023-05-05T10:35:04.032Z,23.54
2023-05-05T10:36:07.686Z,23.68
2023-05-05T10:37:11.521Z,23.98
2023-05-05T10:38:13.367Z,24.03
2023-05-05T10:39:18.088Z,23.72
2023-05-05T10:40:21.608Z,23.25
2023-05-05T10:41:24.215Z,22.72
2023-05-05T10:42:26.001Z,22.44
2023-05-05T10:43:28.330Z,22.55
2023-05-05T10:44:31.889Z,22.89
2023-05-05T10:45:33.925Z,22.76
2023-05-05T10:46:36.176Z,22.72
2023-05-05T10:47:38.371Z,22.80
2023-05-05T10:48:48.096Z,22.74
2023-05-05T10:49:56.144Z,22.88
2023-05-05T10:51:08.336Z,23.07
2023-05-05T10:52:28.866Z,23.19
2023-05-05T10:53:40.862Z,23.25
2023-05-05T10:54:45.224Z,23.51
2023-05-05T10:55:54.250Z,23.93
2023-05-05T10:56:56.989Z,24.15
2023-05-05T10:57:58.635Z,24.15
2023-05-05T10:59:00.962Z,24.39
2023-05-05T11:00:04.269Z,24.37
2023-05-05T11:01:06.815Z,24.21
2023-05-05T11:02:18.345Z,24.60
2023-05-05T11:03:21.412Z,24.74
2023-05-05T11:04:23.795Z,24.63
2023-05-05T11:05:25.583Z,24.88
2023-05-05T11:06:28.723Z,24.60
2023-05-05T11:07:30.740Z,24.25
2023-05-05T11:08:33.118Z,24.51
2023-05-05T11:09:42.105Z,24.67
2023-05-05T11:10:44.181Z,24.94
2023-05-05T11:12:02.665Z,25.04
2023-05-05T11:13:04.339Z,24.70
2023-05-05T11:14:22.541Z,24.55
2023-05-05T11:15:24.275Z,24.45
2023-05-05T11:16:42.642Z,24.84
2023-05-05T11:17:48.352Z,24.88
2023-05-05T11:18:50.224Z,24.97
2023-05-05T11:19:52.514Z,25.15
2023-05-05T11:20:59.962Z,25.16
2023-05-05T11:22:02.188Z,25.12
2023-05-05T11:23:04.646Z,24.73
2023-05-05T11:24:27.886Z,24.28
2023-05-05T11:25:36.290Z,24.51
2023-05-05T11:26:53.752Z,24.00
2023-05-05T11:28:08.791Z,24.60
2023-05-05T11:29:11.016Z,25.05
2023-05-05T11:30:13.225Z,24.87
2023-05-05T11:31:15.028Z,24.90
2023-05-05T11:32:16.811Z,25.12
2023-05-05T11:33:36.070Z,25.02
2023-05-05T11:34:47.809Z,25.12
2023-05-05T11:35:59.454Z,24.60
2023-05-05T11:37:03.372Z,24.73
2023-05-05T11:38:06.999Z,24.34
2023-05-05T11:39:10.113Z,23.60
2023-05-05T11:40:23.891Z,23.61
2023-05-05T11:41:34.383Z,23.65
2023-05-05T11:42:36.197Z,23.45
2023-05-05T11:43:38.184Z,24.16
2023-05-05T11:44:40.008Z,24.75
2023-05-05T11:45:42.126Z,25.03
2023-05-05T11:46:52.855Z,25.14
2023-05-05T11:48:14.536Z,25.17
2023-05-05T11:49:26.143Z,25.12
2023-05-05T11:50:28.004Z,25.04
2023-05-05T11:51:30.891Z,25.17
2023-05-05T11:52:34.492Z,25.17
2023-05-05T11:53:36.354Z,25.14
2023-05-05T11:54:40.544Z,25.49
2023-05-05T11:55:42.260Z,25.69
2023-05-05T11:56:51.246Z,25.40
2023-05-05T11:57:53.141Z,25.67
2023-05-05T11:59:06.750Z,25.53
2023-05-05T12:00:09.207Z,25.26
2023-05-05T12:01:11.565Z,25.41
2023-05-05T12:02:16.382Z,25.46
2023-05-05T12:03:18.217Z,25.38
2023-05-05T12:04:20.666Z,25.60
2023-05-05T12:05:22.455Z,25.38
2023-05-05T12:06:24.440Z,25.17
2023-05-05T12:07:27.267Z,24.82
2023-05-05T12:08:29.118Z,24.84
2023-05-05T12:09:30.932Z,24.75
2023-05-05T12:10:32.995Z,24.64
2023-05-05T12:11:34.974Z,24.40
2023-05-05T12:12:37.737Z,24.59
2023-05-05T12:13:39.775Z,24.57
2023-05-05T12:14:59.512Z,24.72
2023-05-05T12:16:14.397Z,24.87
2023-05-05T12:17:16.424Z,24.41
2023-05-05T12:18:19.077Z,24.59
2023-05-05T12:19:20.776Z,24.56
2023-05-05T12:20:32.513Z,24.52
2023-05-05T12:21:35.090Z,24.55
2023-05-05T12:22:37.367Z,24.35
2023-05-05T12:23:39.292Z,24.52
2023-05-05T12:24:41.509Z,24.55
2023-05-05T12:25:43.312Z,24.60
2023-05-05T12:26:45.020Z,24.49
2023-05-05T12:27:53.537Z,24.51
2023-05-05T12:28:55.823Z,24.53
2023-05-05T12:30:10.331Z,24.22
2023-05-05T12:31:12.158Z,24.19
2023-05-05T12:32:24.494Z,24.23
2023-05-05T12:33:26.682Z,24.15
2023-05-05T12:34:28.469Z,24.30
2023-05-05T12:35:31.405Z,24.45
2023-05-05T12:36:34.014Z,24.64
2023-05-05T12:37:37.236Z,24.64
2023-05-05T12:38:39.207Z,24.54
2023-05-05T12:39:41.333Z,24.67
2023-05-05T12:40:44.864Z,24.61
2023-05-05T12:41:47.083Z,24.65
2023-05-05T12:42:49.181Z,24.55
2023-05-05T12:43:57.936Z,24.60
2023-05-05T12:44:59.760Z,24.70
2023-05-05T12:46:09.158Z,24.81
2023-05-05T12:47:14.718Z,24.81
2023-05-05T12:48:22.919Z,24.81
2023-05-05T12:49:24.933Z,24.76
2023-05-05T12:50:33.131Z,24.30
2023-05-05T12:51:35.999Z,24.41
2023-05-05T12:52:42.444Z,24.08
2023-05-05T12:53:44.937Z,24.36
2023-05-05T12:54:56.918Z,24.32
2023-05-05T12:55:58.571Z,24.35
2023-05-05T12:57:10.607Z,24.36
2023-05-05T12:58:12.694Z,24.41
2023-05-05T12:59:24.086Z,24.36
2023-05-05T13:00:26.466Z,24.17
2023-05-05T13:01:28.635Z,24.21
2023-05-05T13:02:34.108Z,24.27
2023-05-05T13:03:36.126Z,24.41
2023-05-05T13:04:48.224Z,24.66
2023-05-05T13:05:50.208Z,24.69
2023-05-05T13:07:11.126Z,24.64
2023-05-05T13:08:13.034Z,24.33
2023-05-05T13:09:23.859Z,24.35
2023-05-05T13:10:25.589Z,24.67
2023-05-05T13:11:27.654Z,24.28
2023-05-05T13:12:29.467Z,23.71
2023-05-05T13:13:32.000Z,23.50
2023-05-05T13:14:34.034Z,23.98
2023-05-05T13:15:36.604Z,24.31
2023-05-05T13:16:38.635Z,24.61
2023-05-05T13:17:40.440Z,24.61
2023-05-05T13:18:46.125Z,24.79
2023-05-05T13:19:47.902Z,24.86
2023-05-05T13:20:49.753Z,25.02
2023-05-05T13:21:52.622Z,25.13
2023-05-05T13:22:54.346Z,25.15
2023-05-05T13:24:01.307Z,25.26
2023-05-05T13:25:10.604Z,25.21
2023-05-05T13:26:12.806Z,25.02
2023-05-05T13:27:14.817Z,25.04
2023-05-05T13:28:16.506Z,25.01
2023-05-05T13:29:18.525Z,25.16
2023-05-05T13:30:20.755Z,24.92
2023-05-05T13:31:22.418Z,24.95
2023-05-05T13:32:24.493Z,25.03
2023-05-05T13:33:26.622Z,25.09
2023-05-05T13:34:28.511Z,24.87
2023-05-05T13:35:30.559Z,24.71
2023-05-05T13:36:32.266Z,24.72
2023-05-05T13:37:34.223Z,24.61
2023-05-05T13:38:36.741Z,24.60
2023-05-05T13:39:38.613Z,24.56
2023-05-05T13:40:40.380Z,24.24
2023-05-05T13:41:42.086Z,24.17
2023-05-05T13:42:44.264Z,24.39
2023-05-05T13:43:45.937Z,24.67
2023-05-05T13:44:47.831Z,24.80